createdAt,value
2023-02-01T00:00:37.744Z,99680.09
2023-02-01T00:03:41.588Z,99669.69
2023-02-01T00:06:45.359Z,99680.03
2023-02-01T00:09:49.070Z,99686.25
2023-02-01T00:12:52.820Z,99686.38
2023-02-01T00:15:58.149Z,99677.16
2023-02-01T00:19:03.771Z,99685.00
2023-02-01T00:22:07.773Z,99685.31
2023-02-01T00:25:11.754Z,99684.47
2023-02-01T00:28:15.208Z,99674.66
2023-02-01T00:31:20.475Z,99668.06
2023-02-01T00:34:24.229Z,99675.94
2023-02-01T00:37:27.812Z,99672.81
2023-02-01T00:40:31.450Z,99687.81
2023-02-01T00:43:36.383Z,99690.22
2023-02-01T00:46:41.890Z,99688.03
2023-02-01T00:49:45.462Z,99690.25
2023-02-01T00:52:49.062Z,99689.31
2023-02-01T00:55:52.666Z,99684.97
2023-02-01T00:58:56.270Z,99682.16
2023-02-01T01:02:01.336Z,99678.97
2023-02-01T01:05:05.092Z,99673.13
2023-02-01T01:08:08.624Z,99681.38
2023-02-01T01:11:14.932Z,99670.69
2023-02-01T01:14:18.600Z,99663.31
2023-02-01T01:17:23.672Z,99669.06
2023-02-01T01:20:27.321Z,99672.34
2023-02-01T01:23:31.045Z,99666.59
2023-02-01T01:26:35.010Z,99659.75
2023-02-01T01:29:38.983Z,99660.84
2023-02-01T01:32:43.922Z,99670.19
2023-02-01T01:35:47.314Z,99671.19
2023-02-01T01:38:51.453Z,99669.41
2023-02-01T01:41:55.678Z,99667.59
2023-02-01T01:45:05.014Z,99670.75
2023-02-01T01:48:16.424Z,99676.00
2023-02-01T01:51:22.659Z,99682.00
2023-02-01T01:54:30.722Z,99680.16
2023-02-01T01:57:39.282Z,99675.59
2023-02-01T02:00:44.099Z,99672.78
2023-02-01T02:03:49.930Z,99679.75
2023-02-01T02:06:59.981Z,99666.81
2023-02-01T02:10:07.137Z,99669.06
2023-02-01T02:13:11.719Z,99676.72
2023-02-01T02:16:28.226Z,99672.91
2023-02-01T02:20:06.750Z,99675.81
2023-02-01T02:23:51.743Z,99674.97
2023-02-01T02:27:24.130Z,99679.94
2023-02-01T02:30:56.625Z,99684.69
2023-02-01T02:34:13.623Z,99676.53
2023-02-01T02:37:23.989Z,99683.22
2023-02-01T02:40:34.946Z,99681.97
2023-02-01T02:44:05.581Z,99689.22
2023-02-01T02:47:27.253Z,99690.97
2023-02-01T02:50:54.951Z,99687.81
2023-02-01T02:54:25.143Z,99686.78
2023-02-01T02:57:50.604Z,99686.66
2023-02-01T03:01:13.129Z,99685.53
2023-02-01T03:04:18.883Z,99688.94
2023-02-01T03:08:05.262Z,99678.91
2023-02-01T03:11:12.812Z,99675.06
2023-02-01T03:14:18.598Z,99679.41
2023-02-01T03:17:29.879Z,99675.09
2023-02-01T03:20:34.891Z,99678.00
2023-02-01T03:23:39.857Z,99679.50
2023-02-01T03:26:50.901Z,99681.88
2023-02-01T03:30:01.555Z,99690.97
2023-02-01T03:33:14.935Z,99690.34
2023-02-01T03:36:27.531Z,99689.84
2023-02-01T03:39:36.923Z,99681.47
2023-02-01T03:42:48.417Z,99688.09
2023-02-01T03:45:57.116Z,99689.44
2023-02-01T03:49:04.948Z,99693.16
2023-02-01T03:52:12.695Z,99691.28
2023-02-01T03:55:18.735Z,99687.91
2023-02-01T03:58:25.113Z,99693.47
2023-02-01T04:01:30.882Z,99690.16
2023-02-01T04:04:35.973Z,99693.41
2023-02-01T04:07:40.691Z,99695.38
2023-02-01T04:10:45.175Z,99696.44
2023-02-01T04:13:50.220Z,99702.13
2023-02-01T04:16:54.031Z,99702.47
2023-02-01T04:19:57.985Z,99710.75
2023-02-01T04:23:03.698Z,99716.09
2023-02-01T04:26:07.850Z,99716.41
2023-02-01T04:29:13.335Z,99724.41
2023-02-01T04:32:17.192Z,99720.66
2023-02-01T04:35:20.822Z,99731.88
2023-02-01T04:38:24.455Z,99734.63
2023-02-01T04:41:28.069Z,99731.69
2023-02-01T04:44:33.193Z,99727.16
2023-02-01T04:47:36.845Z,99731.00
2023-02-01T04:50:40.560Z,99733.47
2023-02-01T04:53:44.204Z,99732.81
2023-02-01T04:56:47.773Z,99730.38
2023-02-01T04:59:52.748Z,99731.28
2023-02-01T05:02:56.254Z,99723.31
2023-02-01T05:05:59.751Z,99738.03
2023-02-01T05:09:03.233Z,99742.31
2023-02-01T05:12:24.937Z,99739.31
2023-02-01T05:15:29.924Z,99747.47
2023-02-01T05:18:34.169Z,99741.69
2023-02-01T05:21:37.804Z,99743.63
2023-02-01T05:24:41.351Z,99741.09
2023-02-01T05:27:45.388Z,99743.28
2023-02-01T05:30:50.670Z,99735.38
2023-02-01T05:33:54.324Z,99730.63
2023-02-01T05:36:57.935Z,99729.16
2023-02-01T05:40:01.536Z,99730.00
2023-02-01T05:43:05.418Z,99742.09
2023-02-01T05:46:13.817Z,99738.56
2023-02-01T05:49:17.519Z,99727.38
2023-02-01T05:52:21.024Z,99730.31
2023-02-01T05:55:25.113Z,99734.53
2023-02-01T06:01:32.848Z,99735.69
2023-02-01T06:04:36.493Z,99731.63
2023-02-01T06:07:40.252Z,99732.06
2023-02-01T06:10:44.004Z,99734.03
2023-02-01T06:13:47.639Z,99736.28
2023-02-01T06:16:53.659Z,99751.28
2023-02-01T06:19:57.314Z,99749.44
2023-02-01T06:23:01.001Z,99753.53
2023-02-01T06:26:07.084Z,99758.25
2023-02-01T06:29:13.145Z,99752.81
2023-02-01T06:32:18.683Z,99755.31
2023-02-01T06:35:22.490Z,99755.56
2023-02-01T06:38:26.221Z,99767.16
2023-02-01T06:41:29.896Z,99768.81
2023-02-01T06:44:33.924Z,99757.19
2023-02-01T06:47:39.131Z,99763.88
2023-02-01T06:50:42.858Z,99761.38
2023-02-01T06:53:46.589Z,99769.19
2023-02-01T06:56:50.589Z,99778.41
2023-02-01T06:59:54.321Z,99770.44
2023-02-01T07:03:01.189Z,99776.69
2023-02-01T07:06:05.693Z,99779.28
2023-02-01T07:09:10.289Z,99773.66
2023-02-01T07:12:14.523Z,99782.81
2023-02-01T07:15:18.479Z,99782.03
2023-02-01T07:18:23.719Z,99775.91
2023-02-01T07:21:28.995Z,99782.63
2023-02-01T07:24:32.987Z,99786.34
2023-02-01T07:27:37.073Z,99788.56
2023-02-01T07:30:40.870Z,99789.69
2023-02-01T07:33:46.207Z,99786.16
2023-02-01T07:36:49.936Z,99788.97
2023-02-01T07:39:53.665Z,99786.19
2023-02-01T07:42:57.699Z,99788.72
2023-02-01T07:46:01.606Z,99778.84
2023-02-01T07:49:06.718Z,99785.84
2023-02-01T07:52:16.445Z,99785.44
2023-02-01T07:55:20.155Z,99790.97
2023-02-01T07:58:23.912Z,99793.22
2023-02-01T08:01:29.911Z,99793.06
2023-02-01T08:04:35.322Z,99797.53
2023-02-01T08:07:39.180Z,99794.94
2023-02-01T08:10:42.828Z,99794.16
2023-02-01T08:13:46.753Z,99795.03
2023-02-01T08:16:50.424Z,99791.78
2023-02-01T08:19:55.564Z,99797.81
2023-02-01T08:22:59.564Z,99804.16
2023-02-01T08:26:11.179Z,99805.41
2023-02-01T08:29:15.028Z,99810.22
2023-02-01T08:32:18.750Z,99811.41
2023-02-01T08:35:30.505Z,99798.81
2023-02-01T08:38:38.569Z,99801.19
2023-02-01T08:41:43.343Z,99807.53
2023-02-01T08:44:48.352Z,99804.09
2023-02-01T08:47:52.193Z,99805.50
2023-02-01T08:50:57.649Z,99807.19
2023-02-01T08:54:02.112Z,99808.81
2023-02-01T08:57:06.097Z,99800.59
2023-02-01T09:00:14.169Z,99795.66
2023-02-01T09:03:18.392Z,99798.63
2023-02-01T09:06:23.494Z,99791.28
2023-02-01T09:09:29.889Z,99796.13
2023-02-01T09:12:35.639Z,99793.97
2023-02-01T09:15:40.401Z,99796.13
2023-02-01T09:19:01.658Z,99788.56
2023-02-01T09:22:09.224Z,99774.19
2023-02-01T09:25:13.715Z,99770.47
2023-02-01T09:28:17.558Z,99770.09
2023-02-01T09:31:21.509Z,99753.59
2023-02-01T09:34:25.206Z,99766.38
2023-02-01T09:37:30.530Z,99760.97
2023-02-01T09:40:36.594Z,99751.88
2023-02-01T09:43:46.351Z,99745.72
2023-02-01T09:46:50.301Z,99738.25
2023-02-01T09:49:58.663Z,99728.19
2023-02-01T09:53:07.412Z,99732.13
2023-02-01T09:56:16.622Z,99724.75
2023-02-01T09:59:33.200Z,99730.97
2023-02-01T10:02:41.553Z,99719.28
2023-02-01T10:05:59.426Z,99743.38
2023-02-01T10:09:32.121Z,99733.91
2023-02-01T10:13:07.461Z,99737.28
2023-02-01T10:16:29.127Z,99732.75
2023-02-01T10:19:46.624Z,99718.41
2023-02-01T10:23:16.315Z,99704.53
2023-02-01T10:26:24.506Z,99712.59
2023-02-01T10:29:37.079Z,99708.16
2023-02-01T10:32:43.570Z,99708.56
2023-02-01T10:35:48.910Z,99692.81
2023-02-01T10:38:52.623Z,99699.28
2023-02-01T10:41:58.702Z,99695.72
2023-02-01T10:45:05.955Z,99696.22
2023-02-01T10:48:11.181Z,99690.81
2023-02-01T10:51:19.373Z,99702.09
2023-02-01T10:54:25.074Z,99696.50
2023-02-01T10:57:30.967Z,99690.00
2023-02-01T11:00:45.621Z,99689.88
2023-02-01T11:03:56.182Z,99686.13
2023-02-01T11:07:09.680Z,99672.59
2023-02-01T11:10:39.391Z,99666.09
2023-02-01T11:13:44.859Z,99665.78
2023-02-01T11:16:52.104Z,99669.34
2023-02-01T11:20:01.202Z,99664.75
2023-02-01T11:23:05.383Z,99659.34
2023-02-01T11:26:14.302Z,99663.50
2023-02-01T11:29:24.264Z,99655.72
2023-02-01T11:32:29.343Z,99660.13
2023-02-01T11:35:33.284Z,99645.19
2023-02-01T11:38:37.544Z,99652.28
2023-02-01T11:41:45.857Z,99646.81
2023-02-01T11:44:51.309Z,99651.16
2023-02-01T11:47:56.154Z,99647.59
2023-02-01T11:51:19.043Z,99642.34
2023-02-01T11:54:42.566Z,99635.69
2023-02-01T11:57:58.230Z,99637.03
2023-02-01T12:01:22.875Z,99632.72
2023-02-01T12:05:17.273Z,99621.94
2023-02-01T12:08:53.630Z,99629.41
2023-02-01T12:12:06.463Z,99630.53
2023-02-01T12:15:30.921Z,99610.66
2023-02-01T12:18:53.861Z,99617.25
2023-02-01T12:22:15.002Z,99621.44
2023-02-01T12:25:32.212Z,99603.88
2023-02-01T12:28:48.169Z,99610.06
2023-02-01T12:32:13.602Z,99612.38
2023-02-01T12:35:41.189Z,99606.69
2023-02-01T12:38:55.201Z,99606.91
2023-02-01T12:42:04.548Z,99602.97
2023-02-01T12:45:16.940Z,99607.66
2023-02-01T12:48:30.493Z,99585.56
2023-02-01T12:51:39.244Z,99606.41
2023-02-01T12:54:49.753Z,99610.38
2023-02-01T12:57:58.007Z,99611.28
2023-02-01T13:01:05.052Z,99617.69
2023-02-01T13:04:17.513Z,99614.44
2023-02-01T13:07:26.621Z,99610.44
2023-02-01T13:10:36.873Z,99619.69
2023-02-01T13:13:51.036Z,99618.31
2023-02-01T13:17:00.471Z,99615.50
2023-02-01T13:20:09.363Z,99619.63
2023-02-01T13:23:21.053Z,99626.06
2023-02-01T13:26:24.699Z,99615.59
2023-02-01T13:29:30.501Z,99622.38
2023-02-01T13:33:50.184Z,99623.00
2023-02-01T13:36:31.753Z,99625.00
2023-02-01T13:39:51.504Z,99629.19
2023-02-01T13:42:58.088Z,99622.84
2023-02-01T13:46:09.542Z,99628.41
2023-02-01T13:49:23.329Z,99619.91
2023-02-01T13:52:34.751Z,99618.78
2023-02-01T13:55:41.815Z,99617.59
2023-02-01T13:58:47.063Z,99613.69
2023-02-01T14:01:51.220Z,99618.00
2023-02-01T14:04:54.833Z,99610.84
2023-02-01T14:08:14.494Z,99611.84
2023-02-01T14:11:41.844Z,99600.59
2023-02-01T14:14:46.102Z,99607.88
2023-02-01T14:17:49.779Z,99601.16
2023-02-01T14:21:22.083Z,99613.31
2023-02-01T14:24:28.917Z,99599.63
2023-02-01T14:27:38.354Z,99607.75
2023-02-01T14:30:45.707Z,99613.16
2023-02-01T14:33:49.492Z,99604.31
2023-02-01T14:36:59.645Z,99603.88
2023-02-01T14:40:05.497Z,99608.56
2023-02-01T14:43:23.383Z,99610.25
2023-02-01T14:47:06.239Z,99604.53
2023-02-01T14:50:30.656Z,99605.75
2023-02-01T14:53:37.088Z,99622.38
2023-02-01T14:56:41.323Z,99626.78
2023-02-01T14:59:48.300Z,99623.78
2023-02-01T15:02:53.869Z,99622.97
2023-02-01T15:05:59.026Z,99613.59
2023-02-01T15:09:06.446Z,99625.94
2023-02-01T15:12:28.071Z,99621.97
2023-02-01T15:15:37.628Z,99616.53
2023-02-01T15:18:42.360Z,99618.00
2023-02-01T15:21:49.046Z,99618.31
2023-02-01T15:24:56.068Z,99619.78
2023-02-01T15:28:00.423Z,99618.81
2023-02-01T15:31:07.667Z,99613.19
2023-02-01T15:34:11.763Z,99620.03
2023-02-01T15:37:17.773Z,99615.50
2023-02-01T15:40:24.194Z,99629.75
2023-02-01T15:43:29.663Z,99637.28
2023-02-01T15:46:38.106Z,99622.19
2023-02-01T15:49:44.526Z,99629.56
2023-02-01T15:52:51.323Z,99619.97
2023-02-01T15:55:59.353Z,99633.00
2023-02-01T15:59:05.986Z,99626.66
2023-02-01T16:05:41.127Z,99626.66
2023-02-01T16:08:53.585Z,99631.03
2023-02-01T16:12:00.444Z,99640.34
2023-02-01T16:15:04.575Z,99633.91
2023-02-01T16:18:09.329Z,99628.69
2023-02-01T16:21:14.570Z,99636.34
2023-02-01T16:24:18.190Z,99636.06
2023-02-01T16:27:23.486Z,99636.63
2023-02-01T16:30:27.669Z,99632.91
2023-02-01T16:33:31.406Z,99632.25
2023-02-01T16:36:36.741Z,99626.94
2023-02-01T16:39:40.427Z,99634.91
2023-02-01T16:42:44.122Z,99635.75
2023-02-01T16:45:49.967Z,99644.13
2023-02-01T16:48:56.583Z,99643.25
2023-02-01T16:52:01.801Z,99642.47
2023-02-01T16:55:11.223Z,99628.41
2023-02-01T16:58:14.835Z,99637.81
2023-02-01T17:01:20.898Z,99636.28
2023-02-01T17:04:24.951Z,99646.81
2023-02-01T17:07:30.487Z,99643.22
2023-02-01T17:10:34.890Z,99641.66
2023-02-01T17:13:38.626Z,99648.22
2023-02-01T17:16:42.923Z,99646.53
2023-02-01T17:19:48.784Z,99644.09
2023-02-01T17:22:54.545Z,99640.13
2023-02-01T17:25:58.584Z,99639.41
2023-02-01T17:29:02.517Z,99641.44
2023-02-01T17:32:06.759Z,99651.22
2023-02-01T17:35:20.264Z,99647.38
2023-02-01T17:38:26.005Z,99646.91
2023-02-01T17:41:29.967Z,99649.91
2023-02-01T17:44:34.049Z,99652.34
2023-02-01T17:47:39.052Z,99651.47
2023-02-01T17:50:43.068Z,99654.91
2023-02-01T17:53:48.765Z,99665.19
2023-02-01T17:56:52.812Z,99655.44
2023-02-01T17:59:56.449Z,99654.28
2023-02-01T18:03:00.931Z,99655.38
2023-02-01T18:06:06.035Z,99650.50
2023-02-01T18:09:11.120Z,99653.34
2023-02-01T18:12:20.103Z,99642.50
2023-02-01T18:15:26.262Z,99639.81
2023-02-01T18:18:31.435Z,99635.00
2023-02-01T18:21:37.718Z,99635.78
2023-02-01T18:24:42.835Z,99632.81
2023-02-01T18:27:46.729Z,99637.81
2023-02-01T18:30:52.303Z,99639.31
2023-02-01T18:33:58.243Z,99641.28
2023-02-01T18:37:02.539Z,99644.34
2023-02-01T18:40:10.175Z,99647.53
2023-02-01T18:43:15.357Z,99647.06
2023-02-01T18:46:19.850Z,99645.59
2023-02-01T18:49:23.575Z,99652.84
2023-02-01T18:52:27.533Z,99656.38
2023-02-01T18:55:33.308Z,99654.53
2023-02-01T18:58:37.041Z,99649.72
2023-02-01T19:01:40.890Z,99650.03
2023-02-01T19:04:44.719Z,99662.34
2023-02-01T19:07:48.860Z,99655.22
2023-02-01T19:10:54.496Z,99653.00
2023-02-01T19:13:58.291Z,99647.75
2023-02-01T19:17:02.036Z,99642.63
2023-02-01T19:20:06.244Z,99651.13
2023-02-01T19:23:10.351Z,99645.59
2023-02-01T19:26:16.975Z,99656.78
2023-02-01T19:29:20.645Z,99649.03
2023-02-01T19:32:24.591Z,99646.28
2023-02-01T19:35:28.203Z,99648.25
2023-02-01T19:38:31.981Z,99641.28
2023-02-01T19:41:37.342Z,99649.97
2023-02-01T19:44:41.102Z,99650.44
2023-02-01T19:47:44.724Z,99642.22
2023-02-01T19:50:48.448Z,99650.50
2023-02-01T19:53:52.122Z,99639.25
2023-02-01T19:56:57.181Z,99638.13
2023-02-01T20:00:00.819Z,99632.22
2023-02-01T20:03:03.786Z,99624.81
2023-02-01T20:06:07.759Z,99629.06
2023-02-01T20:09:11.586Z,99622.63
2023-02-01T20:12:16.863Z,99619.72
2023-02-01T20:15:22.450Z,99623.91
2023-02-01T20:18:26.502Z,99617.31
2023-02-01T20:21:30.240Z,99623.13
2023-02-01T20:24:33.923Z,99623.00
2023-02-01T20:27:39.964Z,99624.34
2023-02-01T20:30:45.603Z,99610.69
2023-02-01T20:33:49.410Z,99616.22
2023-02-01T20:36:53.030Z,99625.00
2023-02-01T20:39:56.859Z,99625.00
2023-02-01T20:43:01.983Z,99629.53
2023-02-01T20:46:05.912Z,99631.41
2023-02-01T20:49:09.739Z,99626.31
2023-02-01T20:52:13.424Z,99625.13
2023-02-01T20:55:17.188Z,99626.22
2023-02-01T20:58:23.218Z,99629.22
2023-02-01T21:01:26.928Z,99628.66
2023-02-01T21:04:30.814Z,99622.25
2023-02-01T21:07:34.427Z,99624.84
2023-02-01T21:10:38.841Z,99632.66
2023-02-01T21:13:50.757Z,99638.56
2023-02-01T21:16:54.600Z,99637.34
2023-02-01T21:19:58.272Z,99641.44
2023-02-01T21:23:01.996Z,99639.69
2023-02-01T21:26:05.922Z,99632.72
2023-02-01T21:29:12.953Z,99646.13
2023-02-01T21:32:16.582Z,99640.66
2023-02-01T21:35:20.284Z,99647.16
2023-02-01T21:38:23.885Z,99640.56
2023-02-01T21:41:44.954Z,99642.34
2023-02-01T21:44:50.244Z,99645.94
2023-02-01T21:47:54.014Z,99646.78
2023-02-01T21:50:58.432Z,99637.31
2023-02-01T21:54:02.332Z,99639.56
2023-02-01T21:57:10.001Z,99633.28
2023-02-01T22:00:16.662Z,99632.97
2023-02-01T22:03:20.421Z,99630.44
2023-02-01T22:06:25.447Z,99629.50
2023-02-01T22:09:29.091Z,99628.97
2023-02-01T22:12:32.903Z,99626.03
2023-02-01T22:15:38.142Z,99618.06
2023-02-01T22:18:41.861Z,99620.06
2023-02-01T22:21:47.616Z,99624.06
2023-02-01T22:24:51.339Z,99622.78
2023-02-01T22:28:31.599Z,99624.31
2023-02-01T22:31:21.096Z,99630.06
2023-02-01T22:34:24.704Z,99629.34
2023-02-01T22:37:28.384Z,99624.22
2023-02-01T22:40:32.078Z,99621.94
2023-02-01T22:43:36.501Z,99623.97
2023-02-01T22:46:41.704Z,99617.13
2023-02-01T22:49:45.451Z,99622.75
2023-02-01T22:52:49.018Z,99620.41
2023-02-01T22:55:52.655Z,99620.88
2023-02-01T22:58:57.723Z,99615.13
2023-02-01T23:02:02.958Z,99619.81
2023-02-01T23:05:06.841Z,99619.00
2023-02-01T23:08:10.622Z,99616.88
2023-02-01T23:11:14.859Z,99603.47
2023-02-01T23:14:19.335Z,99598.97
2023-02-01T23:17:24.498Z,99602.25
2023-02-01T23:20:29.026Z,99591.44
2023-02-01T23:23:32.667Z,99596.81
2023-02-01T23:26:37.042Z,99600.16
2023-02-01T23:29:40.856Z,99593.28
2023-02-01T23:32:46.064Z,99597.97
2023-02-01T23:35:56.581Z,99597.72
2023-02-01T23:39:00.208Z,99597.00
2023-02-01T23:42:05.138Z,99611.03
2023-02-01T23:45:09.591Z,99605.91
2023-02-01T23:48:14.569Z,99619.38
2023-02-01T23:51:18.372Z,99618.34
2023-02-01T23:54:23.016Z,99618.25
2023-02-01T23:57:26.647Z,99624.00
